createdAt,value
2018-11-01T00:01:24.772Z,11.10
2018-11-01T00:05:28.445Z,11.10
2018-11-01T00:09:32.152Z,11.10
2018-11-01T00:13:35.873Z,11.10
2018-11-01T00:17:39.777Z,11.10
2018-11-01T00:21:43.549Z,11.10
2018-11-01T00:25:47.275Z,11.10
2018-11-01T00:29:50.953Z,11.10
2018-11-01T00:33:54.830Z,11.10
2018-11-01T00:37:58.535Z,11.10
2018-11-01T00:42:02.283Z,11.10
2018-11-01T00:46:06.393Z,11.10
2018-11-01T00:50:14.020Z,11.10
2018-11-01T00:54:17.724Z,11.10
2018-11-01T00:58:21.428Z,11.00
2018-11-01T01:02:25.120Z,11.00
2018-11-01T01:06:28.830Z,10.90
2018-11-01T01:10:32.493Z,10.90
2018-11-01T01:14:37.302Z,10.80
2018-11-01T01:18:41.001Z,10.80
2018-11-01T01:22:45.654Z,10.80
2018-11-01T01:26:49.367Z,10.80
2018-11-01T01:30:53.040Z,10.80
2018-11-01T01:34:56.771Z,10.80
2018-11-01T01:39:00.572Z,10.70
2018-11-01T01:43:04.508Z,10.70
2018-11-01T01:47:08.252Z,10.70
2018-11-01T01:51:12.024Z,10.70
2018-11-01T01:55:15.796Z,10.70
2018-11-01T01:59:19.510Z,10.70
2018-11-01T02:03:23.213Z,10.70
2018-11-01T02:07:26.937Z,10.70
2018-11-01T02:11:30.623Z,10.70
2018-11-01T02:15:34.336Z,10.70
2018-11-01T02:19:38.031Z,10.60
2018-11-01T02:23:41.788Z,10.60
2018-11-01T02:27:50.760Z,10.60
2018-11-01T02:31:54.517Z,10.50
2018-11-01T02:35:58.264Z,10.50
2018-11-01T02:40:01.992Z,10.40
2018-11-01T02:44:06.280Z,10.40
2018-11-01T02:48:09.995Z,10.40
2018-11-01T02:52:13.688Z,10.30
2018-11-01T02:56:17.402Z,10.30
2018-11-01T03:00:21.164Z,10.30
2018-11-01T03:04:24.901Z,10.30
2018-11-01T03:08:28.689Z,10.30
2018-11-01T03:12:32.389Z,10.30
2018-11-01T03:16:36.101Z,10.20
2018-11-01T03:20:39.818Z,10.20
2018-11-01T03:24:43.564Z,10.10
2018-11-01T03:28:47.303Z,10.10
2018-11-01T03:32:51.059Z,10.00
2018-11-01T03:36:54.777Z,9.90
2018-11-01T03:40:58.476Z,9.80
2018-11-01T03:45:02.189Z,9.80
2018-11-01T03:49:06.397Z,9.70
2018-11-01T03:53:10.196Z,9.70
2018-11-01T03:57:13.863Z,9.60
2018-11-01T04:01:17.711Z,9.60
2018-11-01T04:05:21.407Z,9.60
2018-11-01T04:09:25.122Z,9.60
2018-11-01T04:13:28.924Z,9.60
2018-11-01T04:17:32.532Z,9.60
2018-11-01T04:21:36.709Z,9.20
2018-11-01T04:25:40.440Z,8.90
2018-11-01T04:29:44.144Z,8.70
2018-11-01T04:33:47.989Z,8.60
2018-11-01T04:37:51.604Z,8.90
2018-11-01T04:41:55.303Z,9.00
2018-11-01T04:45:59.023Z,9.10
2018-11-01T04:50:02.707Z,9.10
2018-11-01T04:54:06.600Z,9.10
2018-11-01T04:58:10.282Z,9.20
2018-11-01T05:02:13.985Z,9.20
2018-11-01T05:06:17.752Z,9.10
2018-11-01T05:10:21.476Z,9.10
2018-11-01T05:14:25.136Z,9.10
2018-11-01T05:18:28.844Z,9.10
2018-11-01T05:22:32.536Z,9.10
2018-11-01T05:26:36.245Z,9.00
2018-11-01T05:30:39.968Z,9.00
2018-11-01T05:34:43.712Z,8.90
2018-11-01T05:38:47.458Z,8.90
2018-11-01T05:42:51.203Z,8.90
2018-11-01T05:46:54.970Z,8.90
2018-11-01T05:50:58.694Z,8.80
2018-11-01T05:55:02.431Z,8.80
2018-11-01T05:59:06.556Z,8.80
2018-11-01T06:03:10.372Z,8.80
2018-11-01T06:07:14.202Z,8.70
2018-11-01T06:11:17.867Z,8.70
2018-11-01T06:15:21.640Z,8.60
2018-11-01T06:19:25.371Z,8.60
2018-11-01T06:23:29.049Z,8.60
2018-11-01T06:27:32.774Z,8.50
2018-11-01T06:31:36.480Z,8.50
2018-11-01T06:35:49.596Z,8.50
2018-11-01T06:39:53.311Z,8.50
2018-11-01T06:43:57.057Z,8.50
2018-11-01T06:48:00.832Z,8.40
2018-11-01T06:52:04.720Z,8.40
2018-11-01T06:56:08.415Z,8.40
2018-11-01T07:00:14.528Z,8.30
2018-11-01T07:04:18.259Z,8.30
2018-11-01T07:08:22.025Z,8.30
2018-11-01T07:12:25.738Z,8.30
2018-11-01T07:16:29.497Z,8.30
2018-11-01T07:20:33.229Z,8.30
2018-11-01T07:24:36.943Z,8.30
2018-11-01T07:28:40.749Z,8.30
2018-11-01T07:32:44.615Z,8.30
2018-11-01T07:36:48.248Z,8.30
2018-11-01T07:40:51.950Z,8.30
2018-11-01T07:44:55.735Z,8.40
2018-11-01T07:48:59.491Z,8.40
2018-11-01T07:53:03.224Z,8.40
2018-11-01T07:57:06.924Z,8.50
2018-11-01T08:01:10.832Z,8.50
2018-11-01T08:05:15.008Z,8.60
2018-11-01T08:09:18.694Z,8.70
2018-11-01T08:13:22.388Z,8.70
2018-11-01T08:17:26.068Z,8.80
2018-11-01T08:21:29.737Z,8.90
2018-11-01T08:25:33.431Z,8.90
2018-11-01T08:29:37.115Z,9.00
2018-11-01T08:33:40.880Z,9.00
2018-11-01T08:37:45.276Z,9.10
2018-11-01T08:41:49.020Z,9.20
2018-11-01T08:45:52.728Z,9.30
2018-11-01T08:49:56.519Z,9.30
2018-11-01T08:54:00.195Z,9.40
2018-11-01T08:58:03.900Z,9.50
2018-11-01T09:02:07.626Z,9.60
2018-11-01T09:06:12.012Z,9.70
2018-11-01T09:10:16.986Z,9.70
2018-11-01T09:14:20.699Z,9.70
2018-11-01T09:18:24.401Z,9.80
2018-11-01T09:22:28.116Z,9.90
2018-11-01T09:26:31.829Z,10.00
2018-11-01T09:30:35.576Z,10.10
2018-11-01T09:34:39.315Z,10.20
2018-11-01T09:38:43.152Z,10.20
2018-11-01T09:42:46.935Z,10.30
2018-11-01T09:46:50.959Z,10.40
2018-11-01T09:50:54.383Z,10.40
2018-11-01T09:54:58.348Z,10.50
2018-11-01T09:59:02.105Z,10.50
2018-11-01T10:03:06.099Z,10.60
2018-11-01T10:07:09.832Z,10.60
2018-11-01T10:11:13.598Z,10.70
2018-11-01T10:15:17.364Z,10.80
2018-11-01T10:19:21.108Z,10.80
2018-11-01T10:23:24.892Z,10.90
2018-11-01T10:27:28.660Z,10.90
2018-11-01T10:31:32.500Z,11.00
2018-11-01T10:35:36.249Z,11.00
2018-11-01T10:39:40.016Z,11.00
2018-11-01T10:43:43.780Z,11.10
2018-11-01T10:47:47.668Z,11.10
2018-11-01T10:51:51.490Z,11.10
2018-11-01T10:55:55.355Z,11.20
2018-11-01T10:59:59.210Z,11.20
2018-11-01T11:04:02.940Z,11.30
2018-11-01T11:08:06.750Z,11.30
2018-11-01T11:12:10.486Z,11.40
2018-11-01T11:16:14.276Z,11.40
2018-11-01T11:20:18.357Z,11.50
2018-11-01T11:24:22.033Z,11.50
2018-11-01T11:28:25.873Z,11.50
2018-11-01T11:32:29.763Z,11.50
2018-11-01T11:36:33.588Z,11.60
2018-11-01T11:40:37.356Z,11.60
2018-11-01T11:44:41.128Z,11.70
2018-11-01T11:48:44.899Z,11.70
2018-11-01T11:52:48.612Z,11.70
2018-11-01T11:56:52.392Z,11.80
2018-11-01T12:00:56.068Z,11.80
2018-11-01T12:04:59.823Z,11.80
2018-11-01T12:09:03.663Z,11.80
2018-11-01T12:13:07.388Z,11.90
2018-11-01T12:17:11.052Z,11.90
2018-11-01T12:21:14.709Z,12.00
2018-11-01T12:25:18.442Z,11.90
2018-11-01T12:29:22.230Z,12.00
2018-11-01T12:33:26.069Z,12.00
2018-11-01T12:37:29.812Z,12.00
2018-11-01T12:41:33.543Z,12.00
2018-11-01T12:45:37.276Z,11.90
2018-11-01T12:49:41.119Z,11.90
2018-11-01T12:53:44.792Z,11.90
2018-11-01T12:57:48.524Z,11.80
2018-11-01T13:01:52.269Z,11.90
2018-11-01T13:05:56.005Z,11.90
2018-11-01T13:10:00.032Z,11.90
2018-11-01T13:14:03.731Z,11.90
2018-11-01T13:18:07.528Z,11.90
2018-11-01T13:22:11.268Z,11.90
2018-11-01T13:26:15.039Z,11.90
2018-11-01T13:30:18.789Z,11.90
2018-11-01T13:34:22.531Z,11.90
2018-11-01T13:38:26.209Z,11.90
2018-11-01T13:42:29.929Z,11.90
2018-11-01T13:46:33.723Z,12.00
2018-11-01T13:50:37.436Z,12.00
2018-11-01T13:54:42.752Z,12.00
2018-11-01T13:58:46.466Z,12.00
2018-11-01T14:02:50.235Z,12.00
2018-11-01T14:06:54.006Z,12.10
2018-11-01T14:10:57.707Z,12.10
2018-11-01T14:15:01.731Z,12.10
2018-11-01T14:19:05.328Z,12.10
2018-11-01T14:23:09.032Z,12.10
2018-11-01T14:27:12.995Z,12.10
2018-11-01T14:31:16.828Z,12.00
2018-11-01T14:35:20.491Z,12.10
2018-11-01T14:39:24.208Z,12.10
2018-11-01T14:43:27.924Z,12.10
2018-11-01T14:47:31.625Z,12.10
2018-11-01T14:51:35.382Z,12.00
2018-11-01T14:55:40.432Z,12.00
2018-11-01T14:59:43.747Z,11.90
2018-11-01T15:03:46.572Z,12.00
2018-11-01T15:07:50.298Z,11.90
2018-11-01T15:11:54.023Z,11.90
2018-11-01T15:15:57.759Z,11.90
2018-11-01T15:20:01.499Z,11.90
2018-11-01T15:24:05.878Z,11.90
2018-11-01T15:28:09.613Z,11.90
2018-11-01T15:32:18.774Z,11.90
2018-11-01T15:36:22.558Z,11.90
2018-11-01T15:40:26.321Z,11.90
2018-11-01T15:44:30.925Z,11.90
2018-11-01T15:48:34.961Z,11.90
2018-11-01T15:52:38.836Z,11.90
2018-11-01T15:56:42.535Z,11.80
2018-11-01T16:00:46.256Z,11.80
2018-11-01T16:04:49.956Z,11.80
2018-11-01T16:08:53.647Z,11.70
2018-11-01T16:12:57.378Z,11.70
2018-11-01T16:17:01.110Z,11.70
2018-11-01T16:21:05.095Z,11.60
2018-11-01T16:25:08.807Z,11.60
2018-11-01T16:29:13.053Z,11.60
2018-11-01T16:33:16.780Z,11.50
2018-11-01T16:37:20.592Z,11.50
2018-11-01T16:41:24.306Z,11.50
2018-11-01T16:45:28.003Z,11.60
2018-11-01T16:49:31.809Z,11.60
2018-11-01T16:53:35.508Z,11.60
2018-11-01T16:57:39.279Z,11.50
2018-11-01T17:01:42.977Z,11.50
2018-11-01T17:05:46.707Z,11.50
2018-11-01T17:09:50.425Z,11.60
2018-11-01T17:13:54.107Z,11.60
2018-11-01T17:17:57.809Z,11.60
2018-11-01T17:22:01.533Z,11.60
2018-11-01T17:26:05.406Z,11.60
2018-11-01T17:30:09.817Z,11.60
2018-11-01T17:34:13.657Z,11.60
2018-11-01T17:38:17.259Z,11.60
2018-11-01T17:42:20.959Z,11.60
2018-11-01T17:46:24.697Z,11.60
2018-11-01T17:50:28.391Z,11.60
2018-11-01T17:54:32.098Z,11.50
2018-11-01T17:58:35.807Z,11.50
2018-11-01T18:02:40.046Z,11.50
2018-11-01T18:06:43.708Z,11.50
2018-11-01T18:10:47.404Z,11.40
2018-11-01T18:14:51.128Z,11.40
2018-11-01T18:18:54.895Z,11.40
2018-11-01T18:22:58.630Z,11.30
2018-11-01T18:27:02.307Z,11.30
2018-11-01T18:31:06.180Z,11.30
2018-11-01T18:35:10.716Z,11.30
2018-11-01T18:39:14.487Z,11.30
2018-11-01T18:43:18.144Z,11.30
2018-11-01T18:47:21.851Z,11.30
2018-11-01T18:51:25.874Z,11.30
2018-11-01T18:55:29.620Z,11.30
2018-11-01T18:59:33.351Z,11.30
2018-11-01T19:03:37.096Z,11.40
2018-11-01T19:07:41.341Z,11.40
2018-11-01T19:11:45.092Z,11.40
2018-11-01T19:15:49.101Z,11.40
2018-11-01T19:19:53.101Z,11.40
2018-11-01T19:23:56.955Z,11.40
2018-11-01T19:28:00.716Z,11.40
2018-11-01T19:32:04.431Z,11.40
2018-11-01T19:36:08.165Z,11.50
2018-11-01T19:40:13.952Z,11.50
2018-11-01T19:44:17.661Z,11.50
2018-11-01T19:48:21.408Z,11.50
2018-11-01T19:52:25.134Z,11.50
2018-11-01T19:56:28.848Z,11.50
2018-11-01T20:00:32.592Z,11.40
2018-11-01T20:04:36.364Z,11.40
2018-11-01T20:08:40.093Z,11.40
2018-11-01T20:12:44.183Z,11.40
2018-11-01T20:16:47.888Z,11.50
2018-11-01T20:20:52.006Z,11.50
2018-11-01T20:24:56.606Z,11.50
2018-11-01T20:29:00.358Z,11.50
2018-11-01T20:33:04.172Z,11.50
2018-11-01T20:37:07.892Z,11.60
2018-11-01T20:41:11.581Z,11.60
2018-11-01T20:45:15.379Z,11.60
2018-11-01T20:49:19.070Z,11.60
2018-11-01T20:53:22.807Z,11.60
2018-11-01T20:57:26.549Z,11.60
2018-11-01T21:01:30.254Z,11.60
2018-11-01T21:05:33.973Z,11.60
2018-11-01T21:09:37.697Z,11.60
2018-11-01T21:13:41.381Z,11.60
2018-11-01T21:17:45.103Z,11.70
2018-11-01T21:21:48.786Z,11.60
2018-11-01T21:25:52.491Z,11.70
2018-11-01T21:29:56.184Z,11.70
2018-11-01T21:33:59.900Z,11.70
2018-11-01T21:38:03.585Z,11.70
2018-11-01T21:42:07.305Z,11.60
2018-11-01T21:46:11.021Z,11.60
2018-11-01T21:50:14.708Z,11.50
2018-11-01T21:54:18.385Z,11.50
2018-11-01T21:58:22.063Z,11.50
2018-11-01T22:02:25.770Z,11.40
2018-11-01T22:06:29.480Z,11.40
2018-11-01T22:10:33.192Z,11.30
2018-11-01T22:14:36.876Z,11.30
2018-11-01T22:18:40.572Z,11.20
2018-11-01T22:22:44.305Z,11.20
2018-11-01T22:26:48.028Z,11.10
2018-11-01T22:30:51.729Z,11.10
2018-11-01T22:34:55.452Z,11.00
2018-11-01T22:38:59.159Z,11.00
2018-11-01T22:43:02.934Z,10.90
2018-11-01T22:47:07.102Z,10.90
2018-11-01T22:51:10.905Z,10.80
2018-11-01T22:55:14.594Z,10.80
2018-11-01T22:59:18.308Z,10.70
2018-11-01T23:03:22.046Z,10.70
2018-11-01T23:07:25.757Z,10.70
2018-11-01T23:11:29.475Z,10.70
2018-11-01T23:15:33.187Z,10.60
2018-11-01T23:19:37.003Z,10.60
2018-11-01T23:23:40.921Z,10.60
2018-11-01T23:27:44.640Z,10.50
2018-11-01T23:31:48.432Z,10.50
2018-11-01T23:35:52.119Z,10.40
2018-11-01T23:40:01.110Z,10.40
2018-11-01T23:44:10.259Z,10.40
2018-11-01T23:48:13.195Z,10.50
2018-11-01T23:52:21.238Z,10.50
2018-11-01T23:56:24.993Z,10.50
